sensor_id;sensor_type;location;lat;lon;timestamp;temperature;humidity
38239;DHT22;24035;48.900;9.188;2023-03-01T00:01:59;-2.30;1.00
38239;DHT22;24035;48.900;9.188;2023-03-01T00:04:25;-2.30;1.00
38239;DHT22;24035;48.900;9.188;2023-03-01T00:06:50;-2.40;1.00
38239;DHT22;24035;48.900;9.188;2023-03-01T00:09:16;-2.40;5.00
38239;DHT22;24035;48.900;9.188;2023-03-01T00:11:42;-2.40;99.90
38239;DHT22;24035;48.900;9.188;2023-03-01T00:14:08;-2.30;99.90
38239;DHT22;24035;48.900;9.188;2023-03-01T00:16:38;-2.40;99.90
38239;DHT22;24035;48.900;9.188;2023-03-01T00:19:06;-2.40;99.90
38239;DHT22;24035;48.900;9.188;2023-03-01T00:21:32;-2.40;99.90
38239;DHT22;24035;48.900;9.188;2023-03-01T00:23:59;-2.40;99.90
38239;DHT22;24035;48.900;9.188;2023-03-01T00:26:25;-2.50;99.90
38239;DHT22;24035;48.900;9.188;2023-03-01T00:28:52;-2.50;99.90
38239;DHT22;24035;48.900;9.188;2023-03-01T00:31:20;-2.50;99.90
38239;DHT22;24035;48.900;9.188;2023-03-01T00:33:46;-2.60;99.90
38239;DHT22;24035;48.900;9.188;2023-03-01T00:36:13;-2.60;99.90
38239;DHT22;24035;48.900;9.188;2023-03-01T00:38:44;-2.70;99.90
38239;DHT22;24035;48.900;9.188;2023-03-01T00:41:13;-2.70;1.00
38239;DHT22;24035;48.900;9.188;2023-03-01T00:43:39;-2.70;1.00
38239;DHT22;24035;48.900;9.188;2023-03-01T00:46:13;-2.60;1.00
38239;DHT22;24035;48.900;9.188;2023-03-01T00:48:39;-2.60;1.00
38239;DHT22;24035;48.900;9.188;2023-03-01T00:53:41;-2.70;1.00
38239;DHT22;24035;48.900;9.188;2023-03-01T00:56:09;-2.60;1.00
38239;DHT22;24035;48.900;9.188;2023-03-01T00:58:35;-2.60;1.00
38239;DHT22;24035;48.900;9.188;2023-03-01T01:01:06;-2.40;1.00
38239;DHT22;24035;48.900;9.188;2023-03-01T01:03:32;-2.40;1.00
38239;DHT22;24035;48.900;9.188;2023-03-01T01:05:58;-2.50;1.00
38239;DHT22;24035;48.900;9.188;2023-03-01T01:08:23;-2.50;1.00
38239;DHT22;24035;48.900;9.188;2023-03-01T01:10:49;-2.30;1.00
38239;DHT22;24035;48.900;9.188;2023-03-01T01:13:15;-2.20;1.00
38239;DHT22;24035;48.900;9.188;2023-03-01T01:15:40;-2.00;99.90
38239;DHT22;24035;48.900;9.188;2023-03-01T01:18:06;-1.90;99.90
38239;DHT22;24035;48.900;9.188;2023-03-01T01:20:32;-2.00;28.20
38239;DHT22;24035;48.900;9.188;2023-03-01T01:22:58;-1.90;1.00
38239;DHT22;24035;48.900;9.188;2023-03-01T01:25:24;-2.10;1.00
38239;DHT22;24035;48.900;9.188;2023-03-01T01:27:52;-2.10;1.00
38239;DHT22;24035;48.900;9.188;2023-03-01T01:30:18;-2.30;1.00
38239;DHT22;24035;48.900;9.188;2023-03-01T01:32:44;-2.40;1.00
38239;DHT22;24035;48.900;9.188;2023-03-01T01:35:09;-2.40;99.90
38239;DHT22;24035;48.900;9.188;2023-03-01T01:37:35;-2.50;99.90
38239;DHT22;24035;48.900;9.188;2023-03-01T01:40:01;-2.40;99.90
38239;DHT22;24035;48.900;9.188;2023-03-01T01:42:30;-2.50;99.90
38239;DHT22;24035;48.900;9.188;2023-03-01T01:45:34;-2.50;99.90
38239;DHT22;24035;48.900;9.188;2023-03-01T01:48:28;-2.50;99.90
38239;DHT22;24035;48.900;9.188;2023-03-01T01:50:57;-2.50;99.90
38239;DHT22;24035;48.900;9.188;2023-03-01T01:53:24;-2.50;99.90
38239;DHT22;24035;48.900;9.188;2023-03-01T01:55:56;-2.50;99.90
38239;DHT22;24035;48.900;9.188;2023-03-01T01:58:25;-2.40;99.90
38239;DHT22;24035;48.900;9.188;2023-03-01T02:00:53;-2.40;99.90
38239;DHT22;24035;48.900;9.188;2023-03-01T02:03:24;-2.30;99.90
38239;DHT22;24035;48.900;9.188;2023-03-01T02:06:01;-2.20;99.90
38239;DHT22;24035;48.900;9.188;2023-03-01T02:08:30;-2.00;97.30
38239;DHT22;24035;48.900;9.188;2023-03-01T02:10:58;-1.80;1.00
38239;DHT22;24035;48.900;9.188;2023-03-01T02:13:31;-1.90;1.00
38239;DHT22;24035;48.900;9.188;2023-03-01T02:15:56;-1.80;1.00
38239;DHT22;24035;48.900;9.188;2023-03-01T02:18:23;-1.70;1.00
38239;DHT22;24035;48.900;9.188;2023-03-01T02:21:25;-1.70;1.00
38239;DHT22;24035;48.900;9.188;2023-03-01T02:23:54;-1.60;1.00
38239;DHT22;24035;48.900;9.188;2023-03-01T02:26:25;-1.50;1.00
38239;DHT22;24035;48.900;9.188;2023-03-01T02:28:52;-1.40;1.00
38239;DHT22;24035;48.900;9.188;2023-03-01T02:31:19;-1.20;1.00
38239;DHT22;24035;48.900;9.188;2023-03-01T02:34:04;-1.10;99.90
38239;DHT22;24035;48.900;9.188;2023-03-01T02:36:39;-1.00;99.90
38239;DHT22;24035;48.900;9.188;2023-03-01T02:39:08;-0.90;99.90
38239;DHT22;24035;48.900;9.188;2023-03-01T02:41:44;-0.90;99.90
38239;DHT22;24035;48.900;9.188;2023-03-01T02:44:11;-0.90;99.90
38239;DHT22;24035;48.900;9.188;2023-03-01T02:46:50;-0.90;99.90
38239;DHT22;24035;48.900;9.188;2023-03-01T02:49:23;-0.80;99.90
38239;DHT22;24035;48.900;9.188;2023-03-01T02:52:17;-0.80;99.90
38239;DHT22;24035;48.900;9.188;2023-03-01T02:54:52;-0.70;99.90
38239;DHT22;24035;48.900;9.188;2023-03-01T02:57:20;-0.60;58.20
38239;DHT22;24035;48.900;9.188;2023-03-01T02:59:48;-0.50;1.00
38239;DHT22;24035;48.900;9.188;2023-03-01T03:02:23;-0.30;1.00
38239;DHT22;24035;48.900;9.188;2023-03-01T03:05:22;-0.40;1.00
38239;DHT22;24035;48.900;9.188;2023-03-01T03:07:49;-0.40;1.00
38239;DHT22;24035;48.900;9.188;2023-03-01T03:10:23;-0.40;1.00
38239;DHT22;24035;48.900;9.188;2023-03-01T03:12:58;-0.30;1.00
38239;DHT22;24035;48.900;9.188;2023-03-01T03:15:24;-0.30;1.00
38239;DHT22;24035;48.900;9.188;2023-03-01T03:17:51;-0.20;1.00
38239;DHT22;24035;48.900;9.188;2023-03-01T03:20:20;-0.20;1.00
38239;DHT22;24035;48.900;9.188;2023-03-01T03:22:51;-0.20;1.00
38239;DHT22;24035;48.900;9.188;2023-03-01T03:25:17;-0.20;1.00
38239;DHT22;24035;48.900;9.188;2023-03-01T03:27:45;-0.10;1.00
38239;DHT22;24035;48.900;9.188;2023-03-01T03:30:14;-0.10;1.00
38239;DHT22;24035;48.900;9.188;2023-03-01T03:32:42;-0.20;1.00
38239;DHT22;24035;48.900;9.188;2023-03-01T03:35:16;-0.20;1.00
38239;DHT22;24035;48.900;9.188;2023-03-01T03:37:42;-0.20;1.00
38239;DHT22;24035;48.900;9.188;2023-03-01T03:40:27;-0.20;1.00
38239;DHT22;24035;48.900;9.188;2023-03-01T03:42:54;-0.10;1.00
38239;DHT22;24035;48.900;9.188;2023-03-01T03:45:20;-0.20;1.00
38239;DHT22;24035;48.900;9.188;2023-03-01T03:47:46;-0.30;1.00
38239;DHT22;24035;48.900;9.188;2023-03-01T03:50:12;-0.20;1.00
38239;DHT22;24035;48.900;9.188;2023-03-01T03:52:38;-0.20;1.00
38239;DHT22;24035;48.900;9.188;2023-03-01T03:55:05;-0.10;1.00
38239;DHT22;24035;48.900;9.188;2023-03-01T03:57:35;-0.10;1.00
38239;DHT22;24035;48.900;9.188;2023-03-01T04:00:01;-0.10;1.00
38239;DHT22;24035;48.900;9.188;2023-03-01T04:02:30;-0.10;1.00
38239;DHT22;24035;48.900;9.188;2023-03-01T04:04:55;-0.10;1.00
38239;DHT22;24035;48.900;9.188;2023-03-01T04:07:21;0.00;1.00
38239;DHT22;24035;48.900;9.188;2023-03-01T04:09:47;0.00;1.00
38239;DHT22;24035;48.900;9.188;2023-03-01T04:12:12;-0.10;1.00
38239;DHT22;24035;48.900;9.188;2023-03-01T04:14:38;0.00;1.00
38239;DHT22;24035;48.900;9.188;2023-03-01T04:17:04;0.10;1.00
38239;DHT22;24035;48.900;9.188;2023-03-01T04:19:33;0.00;1.00
38239;DHT22;24035;48.900;9.188;2023-03-01T04:22:04;0.00;1.00
38239;DHT22;24035;48.900;9.188;2023-03-01T04:24:37;0.00;1.00
38239;DHT22;24035;48.900;9.188;2023-03-01T04:27:03;0.10;1.00
38239;DHT22;24035;48.900;9.188;2023-03-01T04:29:29;0.20;1.00
38239;DHT22;24035;48.900;9.188;2023-03-01T04:31:55;0.00;1.00
38239;DHT22;24035;48.900;9.188;2023-03-01T04:34:20;0.00;1.00
38239;DHT22;24035;48.900;9.188;2023-03-01T04:36:46;0.00;1.00
38239;DHT22;24035;48.900;9.188;2023-03-01T04:39:12;0.10;1.00
38239;DHT22;24035;48.900;9.188;2023-03-01T04:41:38;0.20;1.00
38239;DHT22;24035;48.900;9.188;2023-03-01T04:44:05;0.10;1.00
38239;DHT22;24035;48.900;9.188;2023-03-01T04:46:32;0.10;1.00
38239;DHT22;24035;48.900;9.188;2023-03-01T04:48:57;0.00;1.00
38239;DHT22;24035;48.900;9.188;2023-03-01T04:51:23;0.00;1.00
38239;DHT22;24035;48.900;9.188;2023-03-01T04:53:49;-0.10;1.00
38239;DHT22;24035;48.900;9.188;2023-03-01T04:56:16;-0.10;1.00
38239;DHT22;24035;48.900;9.188;2023-03-01T04:58:44;-0.10;1.00
38239;DHT22;24035;48.900;9.188;2023-03-01T05:01:18;-0.10;1.00
38239;DHT22;24035;48.900;9.188;2023-03-01T05:03:46;-0.20;1.00
38239;DHT22;24035;48.900;9.188;2023-03-01T05:06:13;-0.20;1.00
38239;DHT22;24035;48.900;9.188;2023-03-01T05:08:40;-0.30;1.00
38239;DHT22;24035;48.900;9.188;2023-03-01T05:11:06;-0.20;1.00
38239;DHT22;24035;48.900;9.188;2023-03-01T05:13:35;-0.20;1.00
38239;DHT22;24035;48.900;9.188;2023-03-01T05:16:01;-0.20;1.00
38239;DHT22;24035;48.900;9.188;2023-03-01T05:18:32;-0.20;1.00
38239;DHT22;24035;48.900;9.188;2023-03-01T05:21:12;-0.20;1.00
38239;DHT22;24035;48.900;9.188;2023-03-01T05:23:38;-0.20;1.00
38239;DHT22;24035;48.900;9.188;2023-03-01T05:26:05;-0.20;1.00
38239;DHT22;24035;48.900;9.188;2023-03-01T05:28:31;-0.20;1.00
38239;DHT22;24035;48.900;9.188;2023-03-01T05:30:58;-0.30;1.00
38239;DHT22;24035;48.900;9.188;2023-03-01T05:33:25;-0.20;1.00
38239;DHT22;24035;48.900;9.188;2023-03-01T05:35:51;-0.10;1.00
38239;DHT22;24035;48.900;9.188;2023-03-01T05:38:18;-0.20;1.00
38239;DHT22;24035;48.900;9.188;2023-03-01T05:40:46;-0.30;1.00
38239;DHT22;24035;48.900;9.188;2023-03-01T05:43:14;-0.30;1.00
38239;DHT22;24035;48.900;9.188;2023-03-01T05:45:41;-0.40;1.00
38239;DHT22;24035;48.900;9.188;2023-03-01T05:48:08;-0.40;1.00
38239;DHT22;24035;48.900;9.188;2023-03-01T05:50:43;-0.50;7.20
38239;DHT22;24035;48.900;9.188;2023-03-01T05:53:18;-0.60;47.50
38239;DHT22;24035;48.900;9.188;2023-03-01T05:55:45;-0.70;96.70
38239;DHT22;24035;48.900;9.188;2023-03-01T05:58:19;-0.80;99.90
38239;DHT22;24035;48.900;9.188;2023-03-01T06:00:47;-0.70;99.90
38239;DHT22;24035;48.900;9.188;2023-03-01T06:03:16;-0.80;99.90
38239;DHT22;24035;48.900;9.188;2023-03-01T06:05:42;-0.80;99.90
38239;DHT22;24035;48.900;9.188;2023-03-01T06:08:10;-0.90;99.90
38239;DHT22;24035;48.900;9.188;2023-03-01T06:10:36;-0.90;99.90
38239;DHT22;24035;48.900;9.188;2023-03-01T06:13:02;-0.90;99.90
38239;DHT22;24035;48.900;9.188;2023-03-01T06:15:27;-0.90;99.90
38239;DHT22;24035;48.900;9.188;2023-03-01T06:17:54;-0.80;99.90
38239;DHT22;24035;48.900;9.188;2023-03-01T06:20:24;-0.90;99.90
38239;DHT22;24035;48.900;9.188;2023-03-01T06:22:50;-0.80;99.90
38239;DHT22;24035;48.900;9.188;2023-03-01T06:25:18;-0.90;99.90
38239;DHT22;24035;48.900;9.188;2023-03-01T06:27:45;-0.80;99.90
38239;DHT22;24035;48.900;9.188;2023-03-01T06:30:13;-0.80;99.90
38239;DHT22;24035;48.900;9.188;2023-03-01T06:32:40;-0.90;99.90
38239;DHT22;24035;48.900;9.188;2023-03-01T06:35:13;-1.00;99.90
38239;DHT22;24035;48.900;9.188;2023-03-01T06:37:40;-1.10;99.90
38239;DHT22;24035;48.900;9.188;2023-03-01T06:40:07;-1.10;99.90
38239;DHT22;24035;48.900;9.188;2023-03-01T06:42:42;-1.10;99.90
38239;DHT22;24035;48.900;9.188;2023-03-01T06:45:08;-1.20;99.90
38239;DHT22;24035;48.900;9.188;2023-03-01T06:47:34;-1.30;99.90
38239;DHT22;24035;48.900;9.188;2023-03-01T06:50:01;-1.30;99.90
38239;DHT22;24035;48.900;9.188;2023-03-01T06:52:27;-1.40;99.90
38239;DHT22;24035;48.900;9.188;2023-03-01T06:54:53;-1.40;1.00
38239;DHT22;24035;48.900;9.188;2023-03-01T06:57:18;-1.40;1.00
38239;DHT22;24035;48.900;9.188;2023-03-01T06:59:44;-1.50;1.00
38239;DHT22;24035;48.900;9.188;2023-03-01T07:02:13;-1.40;1.00
38239;DHT22;24035;48.900;9.188;2023-03-01T07:04:39;-1.30;1.00
38239;DHT22;24035;48.900;9.188;2023-03-01T07:07:05;-1.30;1.00
38239;DHT22;24035;48.900;9.188;2023-03-01T07:09:31;-1.20;1.00
38239;DHT22;24035;48.900;9.188;2023-03-01T07:11:57;-1.20;99.90
38239;DHT22;24035;48.900;9.188;2023-03-01T07:14:23;-1.00;99.90
38239;DHT22;24035;48.900;9.188;2023-03-01T07:16:52;-0.90;99.90
38239;DHT22;24035;48.900;9.188;2023-03-01T07:19:18;-0.70;99.90
38239;DHT22;24035;48.900;9.188;2023-03-01T07:21:44;-0.60;88.20
38239;DHT22;24035;48.900;9.188;2023-03-01T07:24:10;-0.60;1.00
38239;DHT22;24035;48.900;9.188;2023-03-01T07:26:37;-0.60;1.00
38239;DHT22;24035;48.900;9.188;2023-03-01T07:29:05;-0.60;1.00
38239;DHT22;24035;48.900;9.188;2023-03-01T07:31:31;-0.40;1.00
38239;DHT22;24035;48.900;9.188;2023-03-01T07:33:58;-0.40;1.00
38239;DHT22;24035;48.900;9.188;2023-03-01T07:36:24;-0.40;1.00
38239;DHT22;24035;48.900;9.188;2023-03-01T07:38:51;-0.30;1.00
38239;DHT22;24035;48.900;9.188;2023-03-01T07:41:16;-0.30;1.00
38239;DHT22;24035;48.900;9.188;2023-03-01T07:43:42;-0.30;1.00
38239;DHT22;24035;48.900;9.188;2023-03-01T07:46:09;-0.30;1.00
38239;DHT22;24035;48.900;9.188;2023-03-01T07:48:35;-0.20;1.00
38239;DHT22;24035;48.900;9.188;2023-03-01T07:51:01;-0.10;1.00
38239;DHT22;24035;48.900;9.188;2023-03-01T07:53:28;0.00;1.00
38239;DHT22;24035;48.900;9.188;2023-03-01T07:56:01;0.00;1.00
38239;DHT22;24035;48.900;9.188;2023-03-01T07:58:27;0.00;1.00
38239;DHT22;24035;48.900;9.188;2023-03-01T08:00:53;-0.10;1.00
38239;DHT22;24035;48.900;9.188;2023-03-01T08:03:18;0.00;1.00
38239;DHT22;24035;48.900;9.188;2023-03-01T08:05:44;0.10;1.00
38239;DHT22;24035;48.900;9.188;2023-03-01T08:08:10;0.20;1.00
38239;DHT22;24035;48.900;9.188;2023-03-01T08:10:36;0.10;1.00
38239;DHT22;24035;48.900;9.188;2023-03-01T08:13:02;0.10;1.00
38239;DHT22;24035;48.900;9.188;2023-03-01T08:15:27;0.20;1.00
38239;DHT22;24035;48.900;9.188;2023-03-01T08:17:53;0.30;1.00
38239;DHT22;24035;48.900;9.188;2023-03-01T08:20:19;0.30;1.00
38239;DHT22;24035;48.900;9.188;2023-03-01T08:22:45;0.30;1.00
38239;DHT22;24035;48.900;9.188;2023-03-01T08:25:10;0.30;1.00
38239;DHT22;24035;48.900;9.188;2023-03-01T08:27:36;0.40;1.00
38239;DHT22;24035;48.900;9.188;2023-03-01T08:30:02;0.50;1.00
38239;DHT22;24035;48.900;9.188;2023-03-01T08:32:38;0.60;1.00
38239;DHT22;24035;48.900;9.188;2023-03-01T08:35:04;0.60;1.00
38239;DHT22;24035;48.900;9.188;2023-03-01T08:37:30;0.70;1.00
38239;DHT22;24035;48.900;9.188;2023-03-01T08:39:59;0.60;1.00
38239;DHT22;24035;48.900;9.188;2023-03-01T08:42:26;0.70;1.00
38239;DHT22;24035;48.900;9.188;2023-03-01T08:44:51;0.80;1.00
38239;DHT22;24035;48.900;9.188;2023-03-01T08:47:18;0.80;99.90
38239;DHT22;24035;48.900;9.188;2023-03-01T08:49:44;0.90;99.90
38239;DHT22;24035;48.900;9.188;2023-03-01T08:52:09;1.00;99.90
38239;DHT22;24035;48.900;9.188;2023-03-01T08:54:35;1.10;99.90
38239;DHT22;24035;48.900;9.188;2023-03-01T08:57:04;1.20;99.90
38239;DHT22;24035;48.900;9.188;2023-03-01T08:59:29;1.30;99.90
38239;DHT22;24035;48.900;9.188;2023-03-01T09:01:56;1.40;99.90
38239;DHT22;24035;48.900;9.188;2023-03-01T09:04:21;1.30;99.90
38239;DHT22;24035;48.900;9.188;2023-03-01T09:06:47;1.40;99.90
38239;DHT22;24035;48.900;9.188;2023-03-01T09:09:15;1.40;99.90
38239;DHT22;24035;48.900;9.188;2023-03-01T09:11:42;1.50;99.90
38239;DHT22;24035;48.900;9.188;2023-03-01T09:14:09;1.50;99.90
38239;DHT22;24035;48.900;9.188;2023-03-01T09:16:34;1.50;99.90
38239;DHT22;24035;48.900;9.188;2023-03-01T09:19:02;1.50;99.90
38239;DHT22;24035;48.900;9.188;2023-03-01T09:21:28;1.50;99.90
38239;DHT22;24035;48.900;9.188;2023-03-01T09:23:56;1.50;99.90
38239;DHT22;24035;48.900;9.188;2023-03-01T09:26:23;1.50;99.90
38239;DHT22;24035;48.900;9.188;2023-03-01T09:28:50;1.60;99.90
38239;DHT22;24035;48.900;9.188;2023-03-01T09:31:18;1.70;99.90
38239;DHT22;24035;48.900;9.188;2023-03-01T09:33:47;1.70;99.90
38239;DHT22;24035;48.900;9.188;2023-03-01T09:36:18;1.70;99.90
38239;DHT22;24035;48.900;9.188;2023-03-01T09:38:44;1.80;99.90
38239;DHT22;24035;48.900;9.188;2023-03-01T09:43:49;2.00;99.90
38239;DHT22;24035;48.900;9.188;2023-03-01T09:46:21;2.00;99.90
38239;DHT22;24035;48.900;9.188;2023-03-01T09:49:04;2.00;99.90
38239;DHT22;24035;48.900;9.188;2023-03-01T09:51:35;2.00;99.90
38239;DHT22;24035;48.900;9.188;2023-03-01T09:54:02;2.00;99.90
38239;DHT22;24035;48.900;9.188;2023-03-01T09:56:44;2.10;99.90
38239;DHT22;24035;48.900;9.188;2023-03-01T10:02:21;2.40;99.90
38239;DHT22;24035;48.900;9.188;2023-03-01T10:10:37;2.80;99.90
38239;DHT22;24035;48.900;9.188;2023-03-01T10:15:45;3.00;99.90
38239;DHT22;24035;48.900;9.188;2023-03-01T10:18:17;3.20;99.90
38239;DHT22;24035;48.900;9.188;2023-03-01T10:23:19;3.20;99.90
38239;DHT22;24035;48.900;9.188;2023-03-01T10:28:29;3.20;99.90
38239;DHT22;24035;48.900;9.188;2023-03-01T10:30:57;3.30;99.90
38239;DHT22;24035;48.900;9.188;2023-03-01T10:33:35;3.50;99.90
38239;DHT22;24035;48.900;9.188;2023-03-01T10:36:02;3.50;99.90
38239;DHT22;24035;48.900;9.188;2023-03-01T10:38:31;3.60;99.90
38239;DHT22;24035;48.900;9.188;2023-03-01T10:41:11;3.80;99.90
38239;DHT22;24035;48.900;9.188;2023-03-01T10:43:55;3.90;99.90
38239;DHT22;24035;48.900;9.188;2023-03-01T10:51:31;4.00;99.90
38239;DHT22;24035;48.900;9.188;2023-03-01T10:53:57;4.10;99.90
38239;DHT22;24035;48.900;9.188;2023-03-01T10:56:22;4.20;99.90
38239;DHT22;24035;48.900;9.188;2023-03-01T10:59:25;4.30;99.90
38239;DHT22;24035;48.900;9.188;2023-03-01T11:02:17;4.30;99.90
38239;DHT22;24035;48.900;9.188;2023-03-01T11:05:00;4.40;99.90
38239;DHT22;24035;48.900;9.188;2023-03-01T11:07:26;4.50;99.90
38239;DHT22;24035;48.900;9.188;2023-03-01T11:09:52;4.60;99.90
38239;DHT22;24035;48.900;9.188;2023-03-01T11:12:18;4.70;99.90
38239;DHT22;24035;48.900;9.188;2023-03-01T11:14:49;4.60;99.90
38239;DHT22;24035;48.900;9.188;2023-03-01T11:17:23;4.60;99.90
38239;DHT22;24035;48.900;9.188;2023-03-01T11:23:04;4.70;99.90
38239;DHT22;24035;48.900;9.188;2023-03-01T11:25:36;4.70;99.90
38239;DHT22;24035;48.900;9.188;2023-03-01T11:28:05;4.70;99.90
38239;DHT22;24035;48.900;9.188;2023-03-01T11:31:05;4.70;99.90
38239;DHT22;24035;48.900;9.188;2023-03-01T11:33:48;4.80;99.90
38239;DHT22;24035;48.900;9.188;2023-03-01T11:37:03;5.00;99.90
38239;DHT22;24035;48.900;9.188;2023-03-01T11:39:38;5.10;99.90
38239;DHT22;24035;48.900;9.188;2023-03-01T11:44:59;5.30;99.90
38239;DHT22;24035;48.900;9.188;2023-03-01T11:50:41;5.20;99.90
38239;DHT22;24035;48.900;9.188;2023-03-01T12:00:53;5.40;99.90
38239;DHT22;24035;48.900;9.188;2023-03-01T12:12:04;5.80;99.90
38239;DHT22;24035;48.900;9.188;2023-03-01T12:14:59;5.80;99.90
38239;DHT22;24035;48.900;9.188;2023-03-01T12:17:44;5.70;99.90
38239;DHT22;24035;48.900;9.188;2023-03-01T12:20:25;5.80;99.90
38239;DHT22;24035;48.900;9.188;2023-03-01T12:31:05;6.10;99.90
38239;DHT22;24035;48.900;9.188;2023-03-01T12:41:54;6.30;99.90
38239;DHT22;24035;48.900;9.188;2023-03-01T12:47:33;6.40;99.90
38239;DHT22;24035;48.900;9.188;2023-03-01T12:50:20;6.50;99.90
38239;DHT22;24035;48.900;9.188;2023-03-01T12:52:55;6.60;99.90
38239;DHT22;24035;48.900;9.188;2023-03-01T12:55:39;6.60;99.90
38239;DHT22;24035;48.900;9.188;2023-03-01T13:00:49;6.70;99.90
38239;DHT22;24035;48.900;9.188;2023-03-01T13:06:25;6.70;99.90
38239;DHT22;24035;48.900;9.188;2023-03-01T13:09:14;6.80;99.90
38239;DHT22;24035;48.900;9.188;2023-03-01T13:11:43;6.80;99.90
38239;DHT22;24035;48.900;9.188;2023-03-01T13:16:52;6.90;99.90
38239;DHT22;24035;48.900;9.188;2023-03-01T13:19:23;6.80;99.90
38239;DHT22;24035;48.900;9.188;2023-03-01T13:21:51;6.70;99.90
38239;DHT22;24035;48.900;9.188;2023-03-01T13:24:26;6.80;99.90
38239;DHT22;24035;48.900;9.188;2023-03-01T13:29:54;7.00;99.90
38239;DHT22;24035;48.900;9.188;2023-03-01T13:32:34;7.00;99.90
38239;DHT22;24035;48.900;9.188;2023-03-01T13:37:35;6.80;99.90
38239;DHT22;24035;48.900;9.188;2023-03-01T13:42:53;6.90;99.90
38239;DHT22;24035;48.900;9.188;2023-03-01T13:45:40;7.00;99.90
38239;DHT22;24035;48.900;9.188;2023-03-01T13:48:18;6.80;99.90
38239;DHT22;24035;48.900;9.188;2023-03-01T13:50:57;6.90;99.90
38239;DHT22;24035;48.900;9.188;2023-03-01T13:53:25;7.00;99.90
38239;DHT22;24035;48.900;9.188;2023-03-01T13:55:56;7.10;99.90
38239;DHT22;24035;48.900;9.188;2023-03-01T14:01:03;7.10;99.90
38239;DHT22;24035;48.900;9.188;2023-03-01T14:03:31;7.10;99.90
38239;DHT22;24035;48.900;9.188;2023-03-01T14:06:09;7.00;99.90
38239;DHT22;24035;48.900;9.188;2023-03-01T14:08:37;7.10;99.90
38239;DHT22;24035;48.900;9.188;2023-03-01T14:11:18;7.10;99.90
38239;DHT22;24035;48.900;9.188;2023-03-01T14:13:54;7.20;99.90
38239;DHT22;24035;48.900;9.188;2023-03-01T14:19:30;7.10;99.90
38239;DHT22;24035;48.900;9.188;2023-03-01T14:22:20;7.10;99.90
38239;DHT22;24035;48.900;9.188;2023-03-01T14:24:50;7.10;99.90
38239;DHT22;24035;48.900;9.188;2023-03-01T14:27:17;7.20;99.90
38239;DHT22;24035;48.900;9.188;2023-03-01T14:29:57;7.30;99.90
38239;DHT22;24035;48.900;9.188;2023-03-01T14:32:31;7.30;99.90
38239;DHT22;24035;48.900;9.188;2023-03-01T14:34:59;7.30;99.90
38239;DHT22;24035;48.900;9.188;2023-03-01T14:37:28;7.40;99.90
38239;DHT22;24035;48.900;9.188;2023-03-01T14:39:54;7.40;99.90
38239;DHT22;24035;48.900;9.188;2023-03-01T14:42:22;7.40;99.90
38239;DHT22;24035;48.900;9.188;2023-03-01T14:44:51;7.30;99.90
38239;DHT22;24035;48.900;9.188;2023-03-01T14:47:30;7.30;99.90
38239;DHT22;24035;48.900;9.188;2023-03-01T14:52:39;7.50;99.90
38239;DHT22;24035;48.900;9.188;2023-03-01T14:55:13;7.40;99.90
38239;DHT22;24035;48.900;9.188;2023-03-01T14:57:47;7.40;99.90
38239;DHT22;24035;48.900;9.188;2023-03-01T15:00:21;7.40;99.90
38239;DHT22;24035;48.900;9.188;2023-03-01T15:02:49;7.30;99.90
38239;DHT22;24035;48.900;9.188;2023-03-01T15:05:21;7.40;99.90
38239;DHT22;24035;48.900;9.188;2023-03-01T15:07:48;7.40;99.90
38239;DHT22;24035;48.900;9.188;2023-03-01T15:10:37;7.40;99.90
38239;DHT22;24035;48.900;9.188;2023-03-01T15:13:22;7.40;99.90
38239;DHT22;24035;48.900;9.188;2023-03-01T15:15:49;7.40;99.90
38239;DHT22;24035;48.900;9.188;2023-03-01T15:18:26;7.40;99.90
38239;DHT22;24035;48.900;9.188;2023-03-01T15:20:52;7.30;99.90
38239;DHT22;24035;48.900;9.188;2023-03-01T15:23:27;7.30;99.90
38239;DHT22;24035;48.900;9.188;2023-03-01T15:25:55;7.30;99.90
38239;DHT22;24035;48.900;9.188;2023-03-01T15:30:58;7.20;99.90
38239;DHT22;24035;48.900;9.188;2023-03-01T15:35:57;7.20;99.90
38239;DHT22;24035;48.900;9.188;2023-03-01T15:38:34;7.10;99.90
38239;DHT22;24035;48.900;9.188;2023-03-01T15:41:03;7.10;99.90
38239;DHT22;24035;48.900;9.188;2023-03-01T15:43:42;7.10;99.90
38239;DHT22;24035;48.900;9.188;2023-03-01T15:46:32;7.10;99.90
38239;DHT22;24035;48.900;9.188;2023-03-01T15:49:04;7.00;99.90
38239;DHT22;24035;48.900;9.188;2023-03-01T15:51:37;7.00;99.90
38239;DHT22;24035;48.900;9.188;2023-03-01T15:54:19;7.00;99.90
38239;DHT22;24035;48.900;9.188;2023-03-01T15:56:45;7.10;99.90
38239;DHT22;24035;48.900;9.188;2023-03-01T15:59:12;7.00;99.90
38239;DHT22;24035;48.900;9.188;2023-03-01T16:01:42;6.90;99.90
38239;DHT22;24035;48.900;9.188;2023-03-01T16:04:10;6.90;99.90
38239;DHT22;24035;48.900;9.188;2023-03-01T16:06:39;6.80;99.90
38239;DHT22;24035;48.900;9.188;2023-03-01T16:09:05;6.80;99.90
38239;DHT22;24035;48.900;9.188;2023-03-01T16:11:31;6.80;99.90
38239;DHT22;24035;48.900;9.188;2023-03-01T16:13:58;6.80;99.90
38239;DHT22;24035;48.900;9.188;2023-03-01T16:16:23;6.70;99.90
38239;DHT22;24035;48.900;9.188;2023-03-01T16:18:49;6.70;99.90
38239;DHT22;24035;48.900;9.188;2023-03-01T16:21:20;6.60;99.90
38239;DHT22;24035;48.900;9.188;2023-03-01T16:23:46;6.60;99.90
38239;DHT22;24035;48.900;9.188;2023-03-01T16:26:13;6.60;99.90
38239;DHT22;24035;48.900;9.188;2023-03-01T16:28:40;6.50;99.90
38239;DHT22;24035;48.900;9.188;2023-03-01T16:31:06;6.40;99.90
38239;DHT22;24035;48.900;9.188;2023-03-01T16:33:31;6.40;99.90
38239;DHT22;24035;48.900;9.188;2023-03-01T16:35:58;6.30;99.90
38239;DHT22;24035;48.900;9.188;2023-03-01T16:38:25;6.30;99.90
38239;DHT22;24035;48.900;9.188;2023-03-01T16:40:52;6.10;99.90
38239;DHT22;24035;48.900;9.188;2023-03-01T16:43:17;6.10;99.90
38239;DHT22;24035;48.900;9.188;2023-03-01T16:45:43;6.10;99.90
38239;DHT22;24035;48.900;9.188;2023-03-01T16:48:11;6.10;99.90
38239;DHT22;24035;48.900;9.188;2023-03-01T16:50:36;6.00;99.90
38239;DHT22;24035;48.900;9.188;2023-03-01T16:53:02;5.90;99.90
38239;DHT22;24035;48.900;9.188;2023-03-01T16:55:28;5.80;99.90
38239;DHT22;24035;48.900;9.188;2023-03-01T16:57:54;5.70;99.90
38239;DHT22;24035;48.900;9.188;2023-03-01T17:00:20;5.70;99.90
38239;DHT22;24035;48.900;9.188;2023-03-01T17:02:46;5.70;99.90
38239;DHT22;24035;48.900;9.188;2023-03-01T17:05:12;5.60;99.90
38239;DHT22;24035;48.900;9.188;2023-03-01T17:07:38;5.50;99.90
38239;DHT22;24035;48.900;9.188;2023-03-01T17:10:06;5.40;99.90
38239;DHT22;24035;48.900;9.188;2023-03-01T17:12:33;5.20;99.90
38239;DHT22;24035;48.900;9.188;2023-03-01T17:14:59;5.20;99.90
38239;DHT22;24035;48.900;9.188;2023-03-01T17:17:25;5.10;99.90
38239;DHT22;24035;48.900;9.188;2023-03-01T17:19:51;5.10;99.90
38239;DHT22;24035;48.900;9.188;2023-03-01T17:22:17;5.00;99.90
38239;DHT22;24035;48.900;9.188;2023-03-01T17:24:43;4.90;99.90
38239;DHT22;24035;48.900;9.188;2023-03-01T17:27:09;4.90;99.90
38239;DHT22;24035;48.900;9.188;2023-03-01T17:29:37;4.80;99.90
38239;DHT22;24035;48.900;9.188;2023-03-01T17:32:03;4.70;99.90
38239;DHT22;24035;48.900;9.188;2023-03-01T17:34:30;4.70;99.90
38239;DHT22;24035;48.900;9.188;2023-03-01T17:36:56;4.70;99.90
38239;DHT22;24035;48.900;9.188;2023-03-01T17:39:22;4.70;99.90
38239;DHT22;24035;48.900;9.188;2023-03-01T17:41:53;4.60;99.90
38239;DHT22;24035;48.900;9.188;2023-03-01T17:44:19;4.40;99.90